sensor_id;sensor_type;location;lat;lon;timestamp;pressure;altitude;pressure_sealevel;temperature;humidity
18784;BME280;9520;50.954;6.968;2023-05-01T00:00:11;101141.69;;;21.07;35.96
18784;BME280;9520;50.954;6.968;2023-05-01T00:00:38;101143.44;;;21.08;36.13
18784;BME280;9520;50.954;6.968;2023-05-01T00:01:00;101146.19;;;21.07;35.47
18784;BME280;9520;50.954;6.968;2023-05-01T00:01:23;101140.81;;;21.07;34.71
18784;BME280;9520;50.954;6.968;2023-05-01T00:01:45;101144.38;;;21.07;35.22
18784;BME280;9520;50.954;6.968;2023-05-01T00:02:09;101141.81;;;21.06;35.27
18784;BME280;9520;50.954;6.968;2023-05-01T00:02:31;101144.47;;;21.06;34.90
18784;BME280;9520;50.954;6.968;2023-05-01T00:02:53;101147.16;;;21.06;34.83
18784;BME280;9520;50.954;6.968;2023-05-01T00:03:15;101135.63;;;21.04;35.11
18784;BME280;9520;50.954;6.968;2023-05-01T00:03:38;101141.81;;;21.06;34.52
18784;BME280;9520;50.954;6.968;2023-05-01T00:04:00;101140.81;;;21.07;34.15
18784;BME280;9520;50.954;6.968;2023-05-01T00:04:22;101146.19;;;21.07;34.48
18784;BME280;9520;50.954;6.968;2023-05-01T00:04:44;101140.06;;;21.05;34.57
18784;BME280;9520;50.954;6.968;2023-05-01T00:05:07;101136.44;;;21.06;34.68
18784;BME280;9520;50.954;6.968;2023-05-01T00:05:30;101133.75;;;21.06;34.67
18784;BME280;9520;50.954;6.968;2023-05-01T00:05:58;101136.44;;;21.06;34.73
18784;BME280;9520;50.954;6.968;2023-05-01T00:06:20;101138.94;;;21.09;34.67
18784;BME280;9520;50.954;6.968;2023-05-01T00:06:43;101134.69;;;21.05;34.77
18784;BME280;9520;50.954;6.968;2023-05-01T00:07:05;101142.56;;;21.08;34.44
18784;BME280;9520;50.954;6.968;2023-05-01T00:07:27;101137.06;;;21.11;34.66
18784;BME280;9520;50.954;6.968;2023-05-01T00:07:51;101133.59;;;21.09;34.74
18784;BME280;9520;50.954;6.968;2023-05-01T00:08:14;101136.19;;;21.10;34.52
18784;BME280;9520;50.954;6.968;2023-05-01T00:08:36;101136.09;;;21.12;34.45
18784;BME280;9520;50.954;6.968;2023-05-01T00:08:58;101130.09;;;21.07;34.90
18784;BME280;9520;50.954;6.968;2023-05-01T00:09:19;101130.69;;;21.14;34.45
18784;BME280;9520;50.954;6.968;2023-05-01T00:09:42;101130.69;;;21.14;34.71
18784;BME280;9520;50.954;6.968;2023-05-01T00:10:04;101133.38;;;21.14;34.44
18784;BME280;9520;50.954;6.968;2023-05-01T00:10:26;101133.31;;;21.15;34.38
18784;BME280;9520;50.954;6.968;2023-05-01T00:10:48;101123.50;;;21.14;34.65
18784;BME280;9520;50.954;6.968;2023-05-01T00:11:11;101127.94;;;21.15;34.46
18784;BME280;9520;50.954;6.968;2023-05-01T00:11:33;101127.06;;;21.15;34.56
18784;BME280;9520;50.954;6.968;2023-05-01T00:11:55;101122.56;;;21.15;34.35
18784;BME280;9520;50.954;6.968;2023-05-01T00:12:17;101127.09;;;21.13;34.47
18784;BME280;9520;50.954;6.968;2023-05-01T00:12:40;101120.88;;;21.12;34.65
18784;BME280;9520;50.954;6.968;2023-05-01T00:13:02;101123.72;;;21.09;34.46
18784;BME280;9520;50.954;6.968;2023-05-01T00:13:24;101126.34;;;21.11;34.14
18784;BME280;9520;50.954;6.968;2023-05-01T00:13:47;101135.31;;;21.10;34.52
18784;BME280;9520;50.954;6.968;2023-05-01T00:14:09;101135.25;;;21.11;34.29
18784;BME280;9520;50.954;6.968;2023-05-01T00:14:32;101117.31;;;21.12;34.01
18784;BME280;9520;50.954;6.968;2023-05-01T00:14:54;101127.09;;;21.13;34.61
18784;BME280;9520;50.954;6.968;2023-05-01T00:15:16;101123.56;;;21.12;34.97
18784;BME280;9520;50.954;6.968;2023-05-01T00:15:39;101121.84;;;21.11;35.50
18784;BME280;9520;50.954;6.968;2023-05-01T00:16:06;101125.53;;;21.09;35.26
18784;BME280;9520;50.954;6.968;2023-05-01T00:16:30;101121.09;;;21.08;35.07
18784;BME280;9520;50.954;6.968;2023-05-01T00:16:52;101096.81;;;20.94;34.56
18784;BME280;9520;50.954;6.968;2023-05-01T00:17:14;101124.72;;;21.07;34.76
18784;BME280;9520;50.954;6.968;2023-05-01T00:17:36;101122.84;;;21.09;34.49
18784;BME280;9520;50.954;6.968;2023-05-01T00:17:58;101123.78;;;21.08;34.67
18784;BME280;9520;50.954;6.968;2023-05-01T00:18:21;101126.56;;;21.06;34.69
18784;BME280;9520;50.954;6.968;2023-05-01T00:18:44;101115.13;;;21.03;34.49
18784;BME280;9520;50.954;6.968;2023-05-01T00:19:06;101123.78;;;21.08;34.75
18784;BME280;9520;50.954;6.968;2023-05-01T00:19:28;101118.34;;;21.09;34.56
18784;BME280;9520;50.954;6.968;2023-05-01T00:19:50;101119.16;;;21.11;34.63
18784;BME280;9520;50.954;6.968;2023-05-01T00:20:12;101125.38;;;21.12;34.49
18784;BME280;9520;50.954;6.968;2023-05-01T00:20:35;101122.69;;;21.12;35.02
18784;BME280;9520;50.954;6.968;2023-05-01T00:20:57;101119.06;;;21.13;35.04
18784;BME280;9520;50.954;6.968;2023-05-01T00:21:18;101115.59;;;21.11;35.33
18784;BME280;9520;50.954;6.968;2023-05-01T00:21:40;101120.97;;;21.11;35.38
18784;BME280;9520;50.954;6.968;2023-05-01T00:22:02;101123.66;;;21.11;34.78
18784;BME280;9520;50.954;6.968;2023-05-01T00:22:25;101109.38;;;21.10;34.53
18784;BME280;9520;50.954;6.968;2023-05-01T00:22:47;101114.63;;;21.12;35.33
18784;BME280;9520;50.954;6.968;2023-05-01T00:23:08;101111.94;;;21.12;35.05
18784;BME280;9520;50.954;6.968;2023-05-01T00:23:30;101117.31;;;21.12;35.49
18784;BME280;9520;50.954;6.968;2023-05-01T00:23:54;101120.09;;;21.10;35.10
18784;BME280;9520;50.954;6.968;2023-05-01T00:24:16;101113.78;;;21.11;34.70
18784;BME280;9520;50.954;6.968;2023-05-01T00:24:39;101109.44;;;21.09;35.14
18784;BME280;9520;50.954;6.968;2023-05-01T00:25:01;101120.97;;;21.11;34.22
18784;BME280;9520;50.954;6.968;2023-05-01T00:25:24;101121.84;;;21.11;34.76
18784;BME280;9520;50.954;6.968;2023-05-01T00:25:47;101120.97;;;21.11;34.61
18784;BME280;9520;50.954;6.968;2023-05-01T00:26:10;101112.13;;;21.09;34.93
18784;BME280;9520;50.954;6.968;2023-05-01T00:26:34;101105.31;;;21.02;34.43
18784;BME280;9520;50.954;6.968;2023-05-01T00:26:57;101120.16;;;21.09;34.76
18784;BME280;9520;50.954;6.968;2023-05-01T00:27:18;101118.44;;;21.08;35.22
18784;BME280;9520;50.954;6.968;2023-05-01T00:27:40;101113.16;;;21.06;35.38
18784;BME280;9520;50.954;6.968;2023-05-01T00:28:03;101118.44;;;21.08;34.67
18784;BME280;9520;50.954;6.968;2023-05-01T00:28:26;101106.75;;;21.09;34.40
18784;BME280;9520;50.954;6.968;2023-05-01T00:28:48;101114.81;;;21.09;34.74
18784;BME280;9520;50.954;6.968;2023-05-01T00:29:11;101110.38;;;21.08;34.84
18784;BME280;9520;50.954;6.968;2023-05-01T00:29:36;101112.13;;;21.09;34.65
18784;BME280;9520;50.954;6.968;2023-05-01T00:29:58;101105.81;;;21.10;34.45
18784;BME280;9520;50.954;6.968;2023-05-01T00:30:20;101114.63;;;21.12;34.22
18784;BME280;9520;50.954;6.968;2023-05-01T00:30:42;101101.56;;;21.06;33.98
18784;BME280;9520;50.954;6.968;2023-05-01T00:31:04;101106.06;;;21.05;34.12
18784;BME280;9520;50.954;6.968;2023-05-01T00:31:26;101110.25;;;21.11;34.35
18784;BME280;9520;50.954;6.968;2023-05-01T00:31:49;101113.69;;;21.13;34.78
18784;BME280;9520;50.954;6.968;2023-05-01T00:32:11;101105.66;;;21.13;35.07
18784;BME280;9520;50.954;6.968;2023-05-01T00:32:33;101115.75;;;21.08;34.48
18784;BME280;9520;50.954;6.968;2023-05-01T00:33:38;101115.84;;;21.06;35.14
18784;BME280;9520;50.954;6.968;2023-05-01T00:34:02;101112.28;;;21.06;34.66
18784;BME280;9520;50.954;6.968;2023-05-01T00:34:28;101109.50;;;21.07;34.64
18784;BME280;9520;50.954;6.968;2023-05-01T00:34:50;101110.38;;;21.08;34.53
18784;BME280;9520;50.954;6.968;2023-05-01T00:35:13;101104.13;;;21.07;34.53
18784;BME280;9520;50.954;6.968;2023-05-01T00:35:34;101110.31;;;21.09;34.86
18784;BME280;9520;50.954;6.968;2023-05-01T00:35:56;101108.44;;;21.11;34.73
18784;BME280;9520;50.954;6.968;2023-05-01T00:36:18;101109.25;;;21.12;35.40
18784;BME280;9520;50.954;6.968;2023-05-01T00:36:40;101109.38;;;21.10;35.09
18784;BME280;9520;50.954;6.968;2023-05-01T00:37:02;101111.13;;;21.11;35.09
18784;BME280;9520;50.954;6.968;2023-05-01T00:37:24;101098.00;;;21.05;34.80
18784;BME280;9520;50.954;6.968;2023-05-01T00:37:46;101109.38;;;21.10;35.02
18784;BME280;9520;50.954;6.968;2023-05-01T00:38:08;101110.13;;;21.12;34.91
18784;BME280;9520;50.954;6.968;2023-05-01T00:38:30;101106.59;;;21.12;35.12
18784;BME280;9520;50.954;6.968;2023-05-01T00:38:51;101101.41;;;21.09;34.71
18784;BME280;9520;50.954;6.968;2023-05-01T00:39:15;101104.94;;;21.09;34.63
18784;BME280;9520;50.954;6.968;2023-05-01T00:39:37;101106.59;;;21.12;34.60
18784;BME280;9520;50.954;6.968;2023-05-01T00:39:59;101097.84;;;21.08;34.81
18784;BME280;9520;50.954;6.968;2023-05-01T00:40:23;101106.69;;;21.10;34.84
18784;BME280;9520;50.954;6.968;2023-05-01T00:40:47;101103.06;;;21.11;34.92
18784;BME280;9520;50.954;6.968;2023-05-01T00:41:10;101099.66;;;21.08;35.55
18784;BME280;9520;50.954;6.968;2023-05-01T00:41:32;101104.78;;;21.12;35.71
18784;BME280;9520;50.954;6.968;2023-05-01T00:41:58;101102.09;;;21.12;35.02
18784;BME280;9520;50.954;6.968;2023-05-01T00:42:22;101102.34;;;21.08;35.29
18784;BME280;9520;50.954;6.968;2023-05-01T00:42:44;101098.63;;;21.10;35.13
18784;BME280;9520;50.954;6.968;2023-05-01T00:43:05;101104.94;;;21.09;35.62
18784;BME280;9520;50.954;6.968;2023-05-01T00:43:28;101104.00;;;21.10;34.95
18784;BME280;9520;50.954;6.968;2023-05-01T00:43:50;101096.34;;;21.03;35.19
18784;BME280;9520;50.954;6.968;2023-05-01T00:44:13;101103.13;;;21.10;35.25
18784;BME280;9520;50.954;6.968;2023-05-01T00:44:37;101101.22;;;21.12;35.33
18784;BME280;9520;50.954;6.968;2023-05-01T00:45:00;101098.53;;;21.12;35.14
18784;BME280;9520;50.954;6.968;2023-05-01T00:45:22;101098.63;;;21.10;35.04
18784;BME280;9520;50.954;6.968;2023-05-01T00:45:46;101097.69;;;21.11;34.89
18784;BME280;9520;50.954;6.968;2023-05-01T00:46:11;101096.81;;;21.11;34.94
18784;BME280;9520;50.954;6.968;2023-05-01T00:46:34;101104.88;;;21.11;34.61
18784;BME280;9520;50.954;6.968;2023-05-01T00:47:02;101098.53;;;21.12;34.47
18784;BME280;9520;50.954;6.968;2023-05-01T00:47:24;101088.16;;;21.06;35.04
18784;BME280;9520;50.954;6.968;2023-05-01T00:47:50;101103.88;;;21.14;34.94
18784;BME280;9520;50.954;6.968;2023-05-01T00:48:20;101098.50;;;21.14;35.26
18784;BME280;9520;50.954;6.968;2023-05-01T00:48:43;101100.25;;;21.15;35.13
18784;BME280;9520;50.954;6.968;2023-05-01T00:49:05;101103.69;;;21.17;35.16
18784;BME280;9520;50.954;6.968;2023-05-01T00:49:28;101100.16;;;21.16;35.37
18784;BME280;9520;50.954;6.968;2023-05-01T00:49:51;101094.81;;;21.16;35.20
18784;BME280;9520;50.954;6.968;2023-05-01T00:50:13;101098.31;;;21.17;35.29
18784;BME280;9520;50.954;6.968;2023-05-01T00:50:35;101090.59;;;21.10;35.33
18784;BME280;9520;50.954;6.968;2023-05-01T00:50:57;101085.38;;;21.07;35.25
18784;BME280;9520;50.954;6.968;2023-05-01T00:51:20;101103.63;;;21.18;34.59
18784;BME280;9520;50.954;6.968;2023-05-01T00:51:42;101092.03;;;21.18;34.55
18784;BME280;9520;50.954;6.968;2023-05-01T00:52:04;101100.00;;;21.19;34.50
18784;BME280;9520;50.954;6.968;2023-05-01T00:52:26;101098.25;;;21.18;34.88
18784;BME280;9520;50.954;6.968;2023-05-01T00:52:48;101087.78;;;21.14;34.61
18784;BME280;9520;50.954;6.968;2023-05-01T00:53:11;101089.66;;;21.11;35.00
18784;BME280;9520;50.954;6.968;2023-05-01T00:53:33;101106.47;;;21.15;34.19
18784;BME280;9520;50.954;6.968;2023-05-01T00:53:54;101093.94;;;21.16;34.10
18784;BME280;9520;50.954;6.968;2023-05-01T00:54:16;101090.44;;;21.14;34.73
18784;BME280;9520;50.954;6.968;2023-05-01T00:54:40;101089.66;;;21.11;34.57
18784;BME280;9520;50.954;6.968;2023-05-01T00:55:02;101090.66;;;21.09;34.61
18784;BME280;9520;50.954;6.968;2023-05-01T00:55:25;101095.16;;;21.08;34.90
18784;BME280;9520;50.954;6.968;2023-05-01T00:55:47;101088.84;;;21.09;34.78
18784;BME280;9520;50.954;6.968;2023-05-01T00:56:10;101095.09;;;21.10;34.75
18784;BME280;9520;50.954;6.968;2023-05-01T00:56:32;101092.41;;;21.10;34.77
18784;BME280;9520;50.954;6.968;2023-05-01T00:56:54;101093.34;;;21.09;34.68
18784;BME280;9520;50.954;6.968;2023-05-01T00:57:16;101078.38;;;21.05;34.65
18784;BME280;9520;50.954;6.968;2023-05-01T00:57:38;101092.34;;;21.11;34.47
18784;BME280;9520;50.954;6.968;2023-05-01T00:58:01;101088.69;;;21.12;34.13
18784;BME280;9520;50.954;6.968;2023-05-01T00:58:23;101075.69;;;21.05;34.44
18784;BME280;9520;50.954;6.968;2023-05-01T00:58:49;101088.63;;;21.14;34.40
18784;BME280;9520;50.954;6.968;2023-05-01T00:59:13;101086.81;;;21.15;34.38
18784;BME280;9520;50.954;6.968;2023-05-01T00:59:34;101061.78;;;20.97;34.15
18784;BME280;9520;50.954;6.968;2023-05-01T00:59:57;101089.66;;;21.11;34.25
18784;BME280;9520;50.954;6.968;2023-05-01T01:00:19;101085.13;;;21.12;34.41
18784;BME280;9520;50.954;6.968;2023-05-01T01:00:43;101084.19;;;21.13;34.24
18784;BME280;9520;50.954;6.968;2023-05-01T01:01:06;101082.41;;;21.14;34.59
18784;BME280;9520;50.954;6.968;2023-05-01T01:01:29;101089.72;;;21.10;34.30
18784;BME280;9520;50.954;6.968;2023-05-01T01:01:53;101086.16;;;21.09;34.32
18784;BME280;9520;50.954;6.968;2023-05-01T01:02:18;101085.28;;;21.09;34.70
18784;BME280;9520;50.954;6.968;2023-05-01T01:02:40;101080.88;;;21.08;34.57
18784;BME280;9520;50.954;6.968;2023-05-01T01:03:02;101086.09;;;21.11;34.30
18784;BME280;9520;50.954;6.968;2023-05-01T01:03:26;101081.59;;;21.11;33.79
18784;BME280;9520;50.954;6.968;2023-05-01T01:03:48;101086.97;;;21.11;33.86
18784;BME280;9520;50.954;6.968;2023-05-01T01:04:11;101084.34;;;21.10;33.82
18784;BME280;9520;50.954;6.968;2023-05-01T01:04:34;101079.06;;;21.08;33.76
18784;BME280;9520;50.954;6.968;2023-05-01T01:04:57;101081.66;;;21.10;33.87
18784;BME280;9520;50.954;6.968;2023-05-01T01:05:20;101084.34;;;21.10;34.10
18784;BME280;9520;50.954;6.968;2023-05-01T01:05:50;101084.44;;;21.08;34.27
18784;BME280;9520;50.954;6.968;2023-05-01T01:06:16;101086.16;;;21.09;33.89
18784;BME280;9520;50.954;6.968;2023-05-01T01:06:48;101071.09;;;21.07;33.86
18784;BME280;9520;50.954;6.968;2023-05-01T01:07:18;101085.00;;;21.15;33.98
18784;BME280;9520;50.954;6.968;2023-05-01T01:07:50;101077.91;;;21.14;33.74
18784;BME280;9520;50.954;6.968;2023-05-01T01:08:19;101058.00;;;21.01;34.08
18784;BME280;9520;50.954;6.968;2023-05-01T01:08:49;101064.31;;;21.00;33.74
18784;BME280;9520;50.954;6.968;2023-05-01T01:09:22;101071.88;;;21.09;33.75
18784;BME280;9520;50.954;6.968;2023-05-01T01:09:56;101074.28;;;21.15;33.94
18784;BME280;9520;50.954;6.968;2023-05-01T01:10:26;101073.34;;;21.16;33.77
18784;BME280;9520;50.954;6.968;2023-05-01T01:10:56;101074.13;;;21.18;33.71
18784;BME280;9520;50.954;6.968;2023-05-01T01:11:27;101042.94;;;20.98;33.46
18784;BME280;9520;50.954;6.968;2023-05-01T01:11:58;101074.28;;;21.15;33.72
18784;BME280;9520;50.954;6.968;2023-05-01T01:12:28;101071.59;;;21.15;33.53
18784;BME280;9520;50.954;6.968;2023-05-01T01:12:57;101075.06;;;21.17;33.58
18784;BME280;9520;50.954;6.968;2023-05-01T01:13:27;101073.41;;;21.15;33.57
18784;BME280;9520;50.954;6.968;2023-05-01T01:13:55;101063.03;;;21.07;33.49
18784;BME280;9520;50.954;6.968;2023-05-01T01:14:24;101067.00;;;21.17;33.66
18784;BME280;9520;50.954;6.968;2023-05-01T01:14:52;101069.13;;;21.10;33.74
18784;BME280;9520;50.954;6.968;2023-05-01T01:15:20;101074.28;;;21.15;33.90
18784;BME280;9520;50.954;6.968;2023-05-01T01:15:47;101063.84;;;21.09;34.14
18784;BME280;9520;50.954;6.968;2023-05-01T01:16:18;101068.91;;;21.15;34.14
18784;BME280;9520;50.954;6.968;2023-05-01T01:16:45;101069.19;;;21.09;34.09
18784;BME280;9520;50.954;6.968;2023-05-01T01:17:13;101069.00;;;21.14;34.05
18784;BME280;9520;50.954;6.968;2023-05-01T01:17:44;101078.03;;;21.11;33.92
18784;BME280;9520;50.954;6.968;2023-05-01T01:18:15;101069.13;;;21.10;34.07
18784;BME280;9520;50.954;6.968;2023-05-01T01:18:42;101069.19;;;21.09;34.37
18784;BME280;9520;50.954;6.968;2023-05-01T01:20:28;101067.38;;;21.09;34.45
18784;BME280;9520;50.954;6.968;2023-05-01T01:20:54;101067.47;;;21.08;34.08
18784;BME280;9520;50.954;6.968;2023-05-01T01:21:23;101066.69;;;21.06;34.22
18784;BME280;9520;50.954;6.968;2023-05-01T01:21:52;101068.63;;;21.02;34.63
18784;BME280;9520;50.954;6.968;2023-05-01T01:22:19;101067.78;;;21.02;34.34
18784;BME280;9520;50.954;6.968;2023-05-01T01:22:46;101065.00;;;21.03;34.63
18784;BME280;9520;50.954;6.968;2023-05-01T01:23:42;101066.06;;;21.01;34.70
18784;BME280;9520;50.954;6.968;2023-05-01T01:24:32;101058.88;;;21.01;34.96
18784;BME280;9520;50.954;6.968;2023-05-01T01:25:28;101066.75;;;21.04;35.77
18784;BME280;9520;50.954;6.968;2023-05-01T01:26:10;101064.16;;;21.03;35.45
18784;BME280;9520;50.954;6.968;2023-05-01T01:27:39;101050.44;;;20.92;35.15
18784;BME280;9520;50.954;6.968;2023-05-01T01:28:16;101054.53;;;20.99;35.42
18784;BME280;9520;50.954;6.968;2023-05-01T01:29:16;101058.09;;;20.99;35.27
18784;BME280;9520;50.954;6.968;2023-05-01T01:30:34;101052.97;;;20.95;35.58
18784;BME280;9520;50.954;6.968;2023-05-01T01:31:10;101052.97;;;20.95;35.45
18784;BME280;9520;50.954;6.968;2023-05-01T01:31:40;101058.25;;;20.96;35.59
18784;BME280;9520;50.954;6.968;2023-05-01T01:32:14;101051.03;;;20.97;35.72
18784;BME280;9520;50.954;6.968;2023-05-01T01:32:59;101051.16;;;20.95;35.25
18784;BME280;9520;50.954;6.968;2023-05-01T01:34:02;101052.16;;;20.93;34.99
18784;BME280;9520;50.954;6.968;2023-05-01T01:34:25;101053.03;;;20.93;36.04
18784;BME280;9520;50.954;6.968;2023-05-01T01:34:53;101050.59;;;20.89;35.16
18784;BME280;9520;50.954;6.968;2023-05-01T01:35:18;101054.06;;;20.91;34.96
18784;BME280;9520;50.954;6.968;2023-05-01T01:35:42;101049.09;;;20.83;35.34
18784;BME280;9520;50.954;6.968;2023-05-01T01:36:10;101051.69;;;20.85;35.65
18784;BME280;9520;50.954;6.968;2023-05-01T01:36:40;101026.47;;;20.72;35.32
18784;BME280;9520;50.954;6.968;2023-05-01T01:37:10;101045.41;;;20.86;35.02
18784;BME280;9520;50.954;6.968;2023-05-01T01:37:40;101054.38;;;20.85;35.29
18784;BME280;9520;50.954;6.968;2023-05-01T01:38:08;101048.16;;;20.84;35.28
18784;BME280;9520;50.954;6.968;2023-05-01T01:38:36;101042.84;;;20.83;34.95
18784;BME280;9520;50.954;6.968;2023-05-01T01:39:04;101044.78;;;20.81;35.41
18784;BME280;9520;50.954;6.968;2023-05-01T01:39:48;101045.72;;;20.80;35.73
18784;BME280;9520;50.954;6.968;2023-05-01T01:40:14;101049.25;;;20.80;35.12
18784;BME280;9520;50.954;6.968;2023-05-01T01:40:49;101047.34;;;20.82;35.32
18784;BME280;9520;50.954;6.968;2023-05-01T01:41:19;101034.28;;;20.76;35.10
18784;BME280;9520;50.954;6.968;2023-05-01T01:41:48;101044.53;;;20.85;34.96
18784;BME280;9520;50.954;6.968;2023-05-01T01:42:17;101036.56;;;20.84;34.93
18784;BME280;9520;50.954;6.968;2023-05-01T01:42:43;101049.81;;;20.87;35.04
18784;BME280;9520;50.954;6.968;2023-05-01T01:43:11;101039.00;;;20.88;35.10
18784;BME280;9520;50.954;6.968;2023-05-01T01:43:38;101037.34;;;20.86;35.39
18784;BME280;9520;50.954;6.968;2023-05-01T01:44:08;101039.47;;;20.79;35.96
18784;BME280;9520;50.954;6.968;2023-05-01T01:44:33;101042.78;;;20.84;35.85
18784;BME280;9520;50.954;6.968;2023-05-01T01:45:00;101049.81;;;20.87;35.59
18784;BME280;9520;50.954;6.968;2023-05-01T01:45:29;101040.03;;;20.86;35.86
18784;BME280;9520;50.954;6.968;2023-05-01T01:45:58;101021.75;;;20.77;35.73
18784;BME280;9520;50.954;6.968;2023-05-01T01:46:22;101038.28;;;20.85;35.74
18784;BME280;9520;50.954;6.968;2023-05-01T01:46:47;101040.09;;;20.84;35.39
18784;BME280;9520;50.954;6.968;2023-05-01T01:47:14;101041.22;;;20.80;35.46
18784;BME280;9520;50.954;6.968;2023-05-01T01:47:40;101041.22;;;20.80;35.67
18784;BME280;9520;50.954;6.968;2023-05-01T01:48:04;101036.88;;;20.78;35.83
18784;BME280;9520;50.954;6.968;2023-05-01T01:48:31;101039.47;;;20.79;35.35
18784;BME280;9520;50.954;6.968;2023-05-01T01:48:55;101036.78;;;20.79;34.93
18784;BME280;9520;50.954;6.968;2023-05-01T01:49:23;101045.53;;;20.83;35.49
18784;BME280;9520;50.954;6.968;2023-05-01T01:49:49;101036.72;;;20.81;36.32
18784;BME280;9520;50.954;6.968;2023-05-01T01:50:13;101035.84;;;20.80;35.99
18784;BME280;9520;50.954;6.968;2023-05-01T01:50:37;101034.97;;;20.80;35.73
18784;BME280;9520;50.954;6.968;2023-05-01T01:51:05;101035.69;;;20.83;35.46
18784;BME280;9520;50.954;6.968;2023-05-01T01:51:27;101029.44;;;20.83;35.32
18784;BME280;9520;50.954;6.968;2023-05-01T01:51:51;101034.66;;;20.86;35.34
18784;BME280;9520;50.954;6.968;2023-05-01T01:52:15;101033.81;;;20.85;36.07
18784;BME280;9520;50.954;6.968;2023-05-01T01:52:41;101033.09;;;20.82;35.79
18784;BME280;9520;50.954;6.968;2023-05-01T01:53:04;101035.78;;;20.82;35.89
18784;BME280;9520;50.954;6.968;2023-05-01T01:53:28;101014.97;;;20.69;35.76
18784;BME280;9520;50.954;6.968;2023-05-01T01:53:53;101035.06;;;20.78;35.28
18784;BME280;9520;50.954;6.968;2023-05-01T01:54:22;101029.63;;;20.80;35.06
18784;BME280;9520;50.954;6.968;2023-05-01T01:54:49;101026.13;;;20.78;35.58
18784;BME280;9520;50.954;6.968;2023-05-01T01:55:13;101035.06;;;20.78;35.81
18784;BME280;9520;50.954;6.968;2023-05-01T01:55:39;101033.25;;;20.79;36.10
18784;BME280;9520;50.954;6.968;2023-05-01T01:56:05;101033.47;;;20.74;35.44
18784;BME280;9520;50.954;6.968;2023-05-01T01:56:28;101011.41;;;20.69;35.18
18784;BME280;9520;50.954;6.968;2023-05-01T01:56:51;101029.78;;;20.77;35.42
18784;BME280;9520;50.954;6.968;2023-05-01T01:57:16;101029.78;;;20.77;35.42
18784;BME280;9520;50.954;6.968;2023-05-01T01:57:42;101030.63;;;20.77;35.45
18784;BME280;9520;50.954;6.968;2023-05-01T01:58:07;101032.31;;;20.80;35.80
18784;BME280;9520;50.954;6.968;2023-05-01T01:58:31;101026.00;;;20.81;36.07
18784;BME280;9520;50.954;6.968;2023-05-01T01:58:54;101030.63;;;20.77;35.81
18784;BME280;9520;50.954;6.968;2023-05-01T01:59:19;101024.25;;;20.80;35.84
18784;BME280;9520;50.954;6.968;2023-05-01T01:59:43;101023.38;;;20.79;36.06
18784;BME280;9520;50.954;6.968;2023-05-01T02:00:09;101022.69;;;20.76;36.00
18784;BME280;9520;50.954;6.968;2023-05-01T02:00:38;101027.00;;;20.78;35.59
18784;BME280;9520;50.954;6.968;2023-05-01T02:01:04;101027.75;;;20.82;36.10
18784;BME280;9520;50.954;6.968;2023-05-01T02:01:28;101016.22;;;20.80;36.24
18784;BME280;9520;50.954;6.968;2023-05-01T02:01:55;101024.25;;;20.80;36.33
18784;BME280;9520;50.954;6.968;2023-05-01T02:02:19;101027.81;;;20.80;36.41
18784;BME280;9520;50.954;6.968;2023-05-01T02:02:43;101026.94;;;20.80;36.20
18784;BME280;9520;50.954;6.968;2023-05-01T02:03:07;101025.13;;;20.80;36.10
18784;BME280;9520;50.954;6.968;2023-05-01T02:03:30;101018.91;;;20.80;36.38
18784;BME280;9520;50.954;6.968;2023-05-01T02:03:56;101024.09;;;20.83;36.25
18784;BME280;9520;50.954;6.968;2023-05-01T02:04:22;101020.53;;;20.82;36.53
18784;BME280;9520;50.954;6.968;2023-05-01T02:04:45;101023.56;;;20.76;36.37
18784;BME280;9520;50.954;6.968;2023-05-01T02:05:14;101026.06;;;20.79;35.98
18784;BME280;9520;50.954;6.968;2023-05-01T02:05:38;101010.06;;;20.78;36.48
18784;BME280;9520;50.954;6.968;2023-05-01T02:06:02;101022.75;;;20.74;36.78
18784;BME280;9520;50.954;6.968;2023-05-01T02:06:25;101017.63;;;20.69;36.20
18784;BME280;9520;50.954;6.968;2023-05-01T02:06:48;101023.00;;;20.69;36.34
18784;BME280;9520;50.954;6.968;2023-05-01T02:07:13;101011.47;;;20.67;36.08
18784;BME280;9520;50.954;6.968;2023-05-01T02:07:37;101016.75;;;20.69;35.71
18784;BME280;9520;50.954;6.968;2023-05-01T02:08:01;101012.22;;;20.71;35.93
18784;BME280;9520;50.954;6.968;2023-05-01T02:08:28;101015.75;;;20.72;36.29
18784;BME280;9520;50.954;6.968;2023-05-01T02:08:52;101013.06;;;20.72;36.16
18784;BME280;9520;50.954;6.968;2023-05-01T02:09:16;101016.53;;;20.74;36.53
18784;BME280;9520;50.954;6.968;2023-05-01T02:09:41;101016.69;;;20.71;36.59
18784;BME280;9520;50.954;6.968;2023-05-01T02:10:10;101012.28;;;20.69;36.75
18784;BME280;9520;50.954;6.968;2023-05-01T02:10:33;101019.50;;;20.67;36.90
18784;BME280;9520;50.954;6.968;2023-05-01T02:11:00;101017.69;;;20.68;36.35
18784;BME280;9520;50.954;6.968;2023-05-01T02:11:24;101010.53;;;20.68;36.22
18784;BME280;9520;50.954;6.968;2023-05-01T02:11:47;101013.06;;;20.72;36.14
18784;BME280;9520;50.954;6.968;2023-05-01T02:12:10;101012.97;;;20.73;36.00
18784;BME280;9520;50.954;6.968;2023-05-01T02:12:33;101013.78;;;20.75;35.69
18784;BME280;9520;50.954;6.968;2023-05-01T02:12:57;101012.03;;;20.74;36.25
18784;BME280;9520;50.954;6.968;2023-05-01T02:13:21;101013.72;;;20.77;36.05
18784;BME280;9520;50.954;6.968;2023-05-01T02:13:45;101017.63;;;20.69;35.86
18784;BME280;9520;50.954;6.968;2023-05-01T02:14:09;101006.91;;;20.69;35.90
18784;BME280;9520;50.954;6.968;2023-05-01T02:14:34;101014.88;;;20.71;35.28
18784;BME280;9520;50.954;6.968;2023-05-01T02:14:56;101012.97;;;20.73;35.79
18784;BME280;9520;50.954;6.968;2023-05-01T02:15:19;101011.09;;;20.75;35.68
18784;BME280;9520;50.954;6.968;2023-05-01T02:15:44;101011.16;;;20.74;36.28
18784;BME280;9520;50.954;6.968;2023-05-01T02:16:07;101011.09;;;20.75;36.00
18784;BME280;9520;50.954;6.968;2023-05-01T02:16:32;101012.91;;;20.75;35.85
18784;BME280;9520;50.954;6.968;2023-05-01T02:16:54;101008.78;;;20.67;35.64
18784;BME280;9520;50.954;6.968;2023-05-01T02:17:18;101014.25;;;20.66;35.36